Time;durP1;ratioP1;P1;durP2;ratioP2;P2;SDS_P1;SDS_P2;PMS_P1;PMS_P2;Temp;Humidity;BMP_temperature;BMP_pressure;BME280_temperature;BME280_humidity;BME280_pressure;Samples;Min_cycle;Max_cycle;Signal;HPM_P1;HPM_P2
2023/04/10 00:00:17;;;;;;;8.00;5.50;;;3.70;1.00;;;;;;5031397;28;20378;-73
2023/04/10 00:02:43;;;;;;;12.90;7.28;;;3.70;1.00;;;;;;5031404;28;20049;-74
2023/04/10 00:05:10;;;;;;;11.15;6.43;;;3.70;1.00;;;;;;5031281;28;20040;-74
2023/04/10 00:07:36;;;;;;;10.77;6.55;;;3.70;1.00;;;;;;5030392;28;20037;-74
2023/04/10 00:10:03;;;;;;;10.80;6.45;;;3.70;1.00;;;;;;5027870;28;20053;-74
2023/04/10 00:12:29;;;;;;;9.70;6.55;;;3.70;1.00;;;;;;5028212;28;20030;-74
2023/04/10 00:14:55;;;;;;;9.45;5.20;;;3.60;1.00;;;;;;5029220;28;20056;-73
2023/04/10 00:17:21;;;;;;;10.43;6.15;;;3.50;1.00;;;;;;5031597;28;20085;-73
2023/04/10 00:19:48;;;;;;;8.93;6.10;;;3.50;1.00;;;;;;5030612;28;20037;-73
2023/04/10 00:22:14;;;;;;;9.38;6.18;;;3.50;1.00;;;;;;5030865;28;20037;-74
2023/04/10 00:24:40;;;;;;;8.90;5.75;;;3.40;1.00;;;;;;5026731;28;20041;-74
2023/04/10 00:27:06;;;;;;;8.88;6.10;;;3.40;1.00;;;;;;5030639;28;20048;-73
2023/04/10 00:29:32;;;;;;;9.68;6.00;;;3.40;1.00;;;;;;5028777;28;20037;-74
2023/04/10 00:31:58;;;;;;;8.85;5.38;;;3.40;1.00;;;;;;5018944;28;20034;-74
2023/04/10 00:34:25;;;;;;;11.88;5.93;;;3.40;1.00;;;;;;5018867;28;20390;-74
2023/04/10 00:36:51;;;;;;;9.05;6.25;;;3.40;1.00;;;;;;5023489;28;20402;-74
2023/04/10 00:39:17;;;;;;;9.82;5.63;;;3.30;1.00;;;;;;5025178;28;20034;-75
2023/04/10 00:41:43;;;;;;;9.45;5.90;;;3.30;1.00;;;;;;5029389;28;20056;-74
2023/04/10 00:44:09;;;;;;;10.18;5.95;;;3.30;1.00;;;;;;5024779;28;20049;-73
2023/04/10 00:46:37;;;;;;;9.43;5.57;;;3.30;1.00;;;;;;5024201;28;20046;-72
2023/04/10 00:49:03;;;;;;;11.00;6.60;;;3.20;1.00;;;;;;5029824;28;20060;-73
2023/04/10 00:51:30;;;;;;;13.13;7.50;;;3.20;1.00;;;;;;5027602;28;20033;-73
2023/04/10 00:53:56;;;;;;;10.75;6.97;;;3.00;1.00;;;;;;5030743;28;20442;-74
2023/04/10 00:56:23;;;;;;;11.20;7.40;;;2.90;1.00;;;;;;5031178;28;20026;-74
2023/04/10 00:58:49;;;;;;;11.50;6.90;;;2.90;1.00;;;;;;5021037;28;20044;-86
2023/04/10 01:01:16;;;;;;;12.82;6.93;;;2.80;1.00;;;;;;5027470;28;20033;-73
2023/04/10 01:03:43;;;;;;;11.48;6.72;;;2.70;1.00;;;;;;5024221;28;20034;-73
2023/04/10 01:06:25;;;;;;;11.32;6.93;;;2.60;1.00;;;;;;5027134;28;20045;-73
2023/04/10 01:09:10;;;;;;;10.55;7.45;;;2.70;1.00;;;;;;5022832;28;20041;-74
2023/04/10 01:11:42;;;;;;;11.32;7.32;;;2.70;1.00;;;;;;5026806;28;20037;-79
2023/04/10 01:14:47;;;;;;;12.00;7.75;;;2.70;1.00;;;;;;5027345;28;20060;-74
2023/04/10 01:17:21;;;;;;;11.50;7.35;;;2.70;1.00;;;;;;5029804;28;20048;-74
2023/04/10 01:20:00;;;;;;;12.35;6.85;;;2.70;1.00;;;;;;5017629;28;20034;-73
2023/04/10 01:22:40;;;;;;;11.77;6.82;;;2.60;1.00;;;;;;5018337;28;20037;-74
2023/04/10 01:25:30;;;;;;;12.65;7.70;;;2.60;1.00;;;;;;5023516;28;20081;-74
2023/04/10 01:28:17;;;;;;;11.50;6.93;;;2.60;1.00;;;;;;5019319;28;20466;-73
2023/04/10 01:30:50;;;;;;;9.80;6.55;;;2.60;1.00;;;;;;5039337;28;20113;-73
2023/04/10 01:33:20;;;;;;;11.43;6.60;;;2.50;1.00;;;;;;5028793;28;20049;-73
2023/04/10 01:35:52;;;;;;;13.40;6.90;;;2.50;1.00;;;;;;5033319;28;20053;-74
2023/04/10 01:38:20;;;;;;;;;;;2.40;1.00;;;;;;5023631;28;20494;-74
2023/04/10 01:40:51;;;;;;;12.35;6.47;;;2.30;1.00;;;;;;5034959;28;19916;-73
2023/04/10 01:43:30;;;;;;;10.43;6.65;;;2.30;1.00;;;;;;5032483;28;20410;-72
2023/04/10 01:45:57;;;;;;;10.00;6.28;;;2.40;1.00;;;;;;5046437;28;20049;-73
2023/04/10 01:48:23;;;;;;;11.73;7.15;;;2.40;1.00;;;;;;5034718;28;20037;-73
2023/04/10 01:50:51;;;;;;;13.65;7.07;;;2.30;1.00;;;;;;5028236;28;20034;-74
2023/04/10 01:53:18;;;;;;;9.75;5.97;;;2.30;1.00;;;;;;5023994;28;20049;-74
2023/04/10 01:55:44;;;;;;;11.68;7.22;;;2.20;1.00;;;;;;5028863;28;20042;-73
2023/04/10 01:58:12;;;;;;;12.20;8.13;;;2.10;1.00;;;;;;5034308;28;20471;-74
2023/04/10 02:00:41;;;;;;;12.75;7.43;;;2.10;1.00;;;;;;5023293;28;20117;-73
2023/04/10 02:03:11;;;;;;;12.10;8.27;;;1.90;1.00;;;;;;5042423;28;20048;-74
2023/04/10 02:06:06;;;;;;;13.15;7.25;;;1.90;1.00;;;;;;5024531;28;20041;-73
2023/04/10 02:08:51;;;;;;;13.32;7.70;;;1.80;1.00;;;;;;5024748;28;20041;-73
2023/04/10 02:11:30;;;;;;;15.43;7.03;;;1.90;1.00;;;;;;5028959;28;20044;-79
2023/04/10 02:14:02;;;;;;;13.32;8.35;;;1.80;1.00;;;;;;5032088;28;20407;-74
2023/04/10 02:16:30;;;;;;;12.35;7.72;;;1.70;1.00;;;;;;5037623;28;20052;-75
2023/04/10 02:18:59;;;;;;;13.98;8.13;;;1.70;1.00;;;;;;5018724;28;20045;-73
2023/04/10 02:21:26;;;;;;;14.93;8.43;;;1.70;1.00;;;;;;5025031;28;20046;-74
2023/04/10 02:23:52;;;;;;;12.30;7.43;;;1.80;1.00;;;;;;5027125;28;20037;-74
2023/04/10 02:26:18;;;;;;;13.05;7.93;;;1.90;1.00;;;;;;5033815;28;20030;-74
2023/04/10 02:28:46;;;;;;;12.27;7.57;;;2.00;1.00;;;;;;5024804;28;20053;-74
2023/04/10 02:31:13;;;;;;;13.52;8.43;;;2.00;1.00;;;;;;5021042;28;20459;-74
2023/04/10 02:33:39;;;;;;;15.32;8.80;;;2.00;1.00;;;;;;5025765;28;20033;-74
2023/04/10 02:36:05;;;;;;;12.07;6.90;;;1.90;1.00;;;;;;5031429;28;20044;-74
2023/04/10 02:38:31;;;;;;;12.32;7.40;;;1.90;1.00;;;;;;5025946;28;20052;-74
2023/04/10 02:40:58;;;;;;;12.25;7.72;;;1.90;1.00;;;;;;5023350;28;20132;-74
2023/04/10 02:43:26;;;;;;;11.52;7.25;;;1.90;1.00;;;;;;5026355;28;20485;-74
2023/04/10 02:45:53;;;;;;;13.77;7.90;;;2.00;1.00;;;;;;5021099;28;20068;-74
2023/04/10 02:48:25;;;;;;;13.85;7.55;;;2.00;1.00;;;;;;5041531;28;20037;-74
2023/04/10 02:50:56;;;;;;;;;;;2.10;1.00;;;;;;5023145;28;20475;-85
2023/04/10 02:53:24;;;;;;;12.88;7.13;;;2.00;1.00;;;;;;5024327;28;19909;-74
2023/04/10 02:55:54;;;;;;;12.07;7.43;;;2.00;1.00;;;;;;5036774;28;20064;-74
2023/04/10 02:58:23;;;;;;;12.23;7.55;;;2.00;1.00;;;;;;5021518;28;20050;-74
2023/04/10 03:00:52;;;;;;;14.00;7.45;;;2.00;1.00;;;;;;5047494;28;20056;-74
2023/04/10 03:03:40;;;;;;;13.38;7.85;;;2.00;1.00;;;;;;5029420;28;20042;-74
2023/04/10 03:06:11;;;;;;;9.38;6.40;;;2.00;1.00;;;;;;5044908;28;20060;-74
2023/04/10 03:08:38;;;;;;;12.20;7.32;;;2.00;1.00;;;;;;5029598;28;20052;-74
2023/04/10 03:11:06;;;;;;;12.73;8.27;;;2.00;1.00;;;;;;5029368;28;20376;-74
2023/04/10 03:13:32;;;;;;;11.60;6.97;;;1.90;1.00;;;;;;5028922;28;20038;-74
2023/04/10 03:15:59;;;;;;;11.70;7.57;;;1.90;1.00;;;;;;5032168;28;20045;-75
2023/04/10 03:18:25;;;;;;;12.93;7.35;;;1.90;1.00;;;;;;5040194;28;20059;-77
2023/04/10 03:20:54;;;;;;;15.57;8.82;;;1.90;1.00;;;;;;5029069;28;20041;-74
2023/04/10 03:23:20;;;;;;;13.05;7.68;;;1.90;1.00;;;;;;5023753;28;20375;-74
2023/04/10 03:25:52;;;;;;;14.85;7.70;;;1.70;1.00;;;;;;5022156;28;20398;-73
2023/04/10 03:28:21;;;;;;;13.65;7.53;;;1.60;1.00;;;;;;5021485;28;20046;-74
2023/04/10 03:30:48;;;;;;;11.27;8.13;;;1.60;1.00;;;;;;5031680;28;20065;-74
2023/04/10 03:33:15;;;;;;;14.05;8.50;;;1.60;1.00;;;;;;5024473;28;20033;-74
2023/04/10 03:35:41;;;;;;;12.52;8.55;;;1.70;1.00;;;;;;5032428;28;20046;-74
2023/04/10 03:38:08;;;;;;;14.15;8.35;;;1.60;1.00;;;;;;5031443;28;20056;-74
2023/04/10 03:40:35;;;;;;;16.40;9.50;;;1.60;1.00;;;;;;5037444;28;20380;-73
2023/04/10 03:43:02;;;;;;;12.23;7.47;;;1.60;1.00;;;;;;5032375;28;20406;-74
2023/04/10 03:45:30;;;;;;;15.85;9.25;;;1.60;1.00;;;;;;5022684;28;20363;-74
2023/04/10 03:47:59;;;;;;;17.08;10.10;;;1.60;1.00;;;;;;5030988;28;20041;-88
2023/04/10 03:50:27;;;;;;;12.50;7.68;;;1.70;1.00;;;;;;5030117;28;20042;-74
2023/04/10 03:52:59;;;;;;;15.85;9.43;;;1.70;1.00;;;;;;5027449;28;20045;-74
2023/04/10 03:55:25;;;;;;;15.50;9.15;;;1.80;1.00;;;;;;5029110;28;20058;-83
2023/04/10 03:57:51;;;;;;;13.90;9.15;;;1.80;1.00;;;;;;5029984;28;20435;-74
2023/04/10 04:00:23;;;;;;;12.25;7.60;;;1.80;1.00;;;;;;5016007;28;20048;-73
2023/04/10 04:02:57;;;;;;;17.15;9.10;;;1.70;1.00;;;;;;5025771;28;20491;-74
2023/04/10 04:05:52;;;;;;;14.38;8.77;;;1.70;1.00;;;;;;5019426;28;20513;-74
2023/04/10 04:08:41;;;;;;;15.25;8.57;;;1.70;1.00;;;;;;5012393;28;20474;-74
2023/04/10 04:11:26;;;;;;;16.77;9.07;;;1.70;1.00;;;;;;5028123;28;20050;-75
2023/04/10 04:13:52;;;;;;;16.90;9.52;;;1.60;1.00;;;;;;5024188;28;20121;-73
2023/04/10 04:16:37;;;;;;;14.65;9.35;;;1.50;1.00;;;;;;5021692;28;20029;-74
2023/04/10 04:19:21;;;;;;;14.63;9.63;;;1.40;1.00;;;;;;5028227;28;20041;-74
2023/04/10 04:22:04;;;;;;;17.85;8.90;;;1.30;1.00;;;;;;5026979;28;20368;-74
2023/04/10 04:24:51;;;;;;;13.32;9.63;;;1.40;1.00;;;;;;5030367;28;20056;-74
2023/04/10 04:27:28;;;;;;;18.73;10.70;;;1.40;1.00;;;;;;5027895;28;20049;-75
2023/04/10 04:30:07;;;;;;;22.83;15.10;;;1.40;1.00;;;;;;5029105;28;20448;-74
2023/04/10 04:32:45;;;;;;;18.40;10.35;;;1.40;1.00;;;;;;5030892;28;20392;-74
2023/04/10 04:35:17;;;;;;;22.58;13.55;;;1.30;1.00;;;;;;5023523;28;20049;-74
2023/04/10 04:38:15;;;;;;;17.95;11.93;;;1.40;1.00;;;;;;5028004;28;20109;-74
2023/04/10 04:41:05;;;;;;;16.30;10.13;;;1.40;1.00;;;;;;5020761;28;20494;-74
2023/04/10 04:44:01;;;;;;;17.65;10.63;;;1.40;1.00;;;;;;5023223;28;20517;-74
2023/04/10 04:46:45;;;;;;;16.65;10.68;;;1.40;1.00;;;;;;5026607;28;20041;-74
2023/04/10 04:49:24;;;;;;;15.15;9.20;;;1.40;1.00;;;;;;5036955;28;20101;-74
2023/04/10 04:52:10;;;;;;;15.57;8.30;;;1.40;1.00;;;;;;5019062;28;20498;-73
2023/04/10 04:54:42;;;;;;;16.40;9.68;;;1.40;1.00;;;;;;5029284;28;20050;-74
2023/04/10 04:57:22;;;;;;;14.70;8.63;;;1.40;1.00;;;;;;5024724;28;20098;-74
2023/04/10 05:00:07;;;;;;;17.15;10.00;;;1.40;1.00;;;;;;5028386;28;20368;-74
2023/04/10 05:02:52;;;;;;;16.08;9.40;;;1.50;1.00;;;;;;5031230;28;20037;-74
2023/04/10 05:05:37;;;;;;;16.75;10.07;;;1.50;1.00;;;;;;5021846;28;20360;-74
2023/04/10 05:08:25;;;;;;;15.90;9.77;;;1.50;1.00;;;;;;5039784;28;20057;-75
2023/04/10 05:11:06;;;;;;;14.13;9.37;;;1.70;1.00;;;;;;5030695;28;20034;-74
2023/04/10 05:13:51;;;;;;;13.93;8.65;;;1.80;1.00;;;;;;5025914;28;20415;-74
2023/04/10 05:16:37;;;;;;;15.98;9.35;;;1.80;1.00;;;;;;5027836;28;20049;-73
2023/04/10 05:19:15;;;;;;;16.52;9.15;;;1.80;1.00;;;;;;5032755;28;20037;-74
2023/04/10 05:21:56;;;;;;;15.82;9.38;;;1.90;1.00;;;;;;5040350;28;20052;-73
2023/04/10 05:24:40;;;;;;;15.50;8.68;;;2.00;1.00;;;;;;5037870;28;20046;-74
2023/04/10 05:27:35;;;;;;;17.45;9.55;;;2.20;1.00;;;;;;5018191;28;20475;-74
2023/04/10 05:30:14;;;;;;;14.80;8.70;;;2.30;1.00;;;;;;5027199;28;20034;-74
2023/04/10 05:32:40;;;;;;;15.73;10.18;;;2.60;1.00;;;;;;5024671;28;20045;-74
2023/04/10 05:35:42;;;;;;;15.25;9.43;;;2.70;1.00;;;;;;5029828;28;20041;-74
2023/04/10 05:38:30;;;;;;;13.57;8.63;;;2.90;1.00;;;;;;5036355;28;20072;-74
2023/04/10 05:41:22;;;;;;;14.35;9.13;;;3.10;1.00;;;;;;5022024;28;20053;-74
2023/04/10 05:44:00;;;;;;;14.90;8.73;;;3.20;1.00;;;;;;5027551;28;20042;-74
2023/04/10 05:46:46;;;;;;;14.20;8.35;;;3.20;1.00;;;;;;5020217;28;20041;-74
2023/04/10 05:49:45;;;;;;;14.75;8.48;;;3.40;1.00;;;;;;5031706;28;20056;-74
2023/04/10 05:52:26;;;;;;;14.40;8.60;;;3.40;1.00;;;;;;5030447;28;20037;-75
2023/04/10 05:55:15;;;;;;;10.68;7.40;;;3.60;1.00;;;;;;5021473;28;20497;-74
2023/04/10 05:57:41;;;;;;;13.57;8.43;;;4.00;1.00;;;;;;5024976;28;20046;-74
2023/04/10 06:00:27;;;;;;;11.60;8.13;;;4.50;1.00;;;;;;5032644;28;20064;-74
2023/04/10 06:03:12;;;;;;;15.30;8.80;;;5.10;1.00;;;;;;5031045;28;20042;-75
2023/04/10 06:05:48;;;;;;;11.15;7.45;;;5.50;99.90;;;;;;5032923;28;20045;-75
2023/04/10 06:08:15;;;;;;;11.82;8.07;;;5.80;99.90;;;;;;5025019;28;20025;-75
2023/04/10 06:10:41;;;;;;;11.75;8.32;;;6.30;99.90;;;;;;5029603;28;20034;-74
2023/04/10 06:13:10;;;;;;;12.18;7.85;;;6.90;99.90;;;;;;5032465;28;20044;-75
2023/04/10 06:15:37;;;;;;;11.35;7.63;;;7.40;99.90;;;;;;5032784;28;20072;-74
2023/04/10 06:18:03;;;;;;;12.82;9.15;;;8.20;99.90;;;;;;5031793;28;20041;-74
2023/04/10 06:20:29;;;;;;;11.05;8.10;;;9.10;99.90;;;;;;5035143;28;20040;-75
2023/04/10 06:22:55;;;;;;;11.63;7.40;;;9.90;99.90;;;;;;5025517;28;20041;-75
2023/04/10 06:25:21;;;;;;;10.77;7.70;;;9.80;99.90;;;;;;5030925;28;20055;-75
2023/04/10 06:27:48;;;;;;;13.02;8.10;;;10.50;99.90;;;;;;5017354;28;20065;-75
2023/04/10 06:30:14;;;;;;;11.05;8.68;;;10.40;99.90;;;;;;5024293;28;20033;-73
2023/04/10 06:32:40;;;;;;;10.48;7.93;;;10.00;99.90;;;;;;5032689;28;20500;-74
2023/04/10 06:35:07;;;;;;;11.60;8.35;;;9.60;99.90;;;;;;5032392;28;20037;-84
2023/04/10 06:37:33;;;;;;;12.10;9.05;;;10.10;99.90;;;;;;5032703;28;20056;-74
2023/04/10 06:40:09;;;;;;;11.75;8.60;;;10.90;99.90;;;;;;5031759;28;20045;-74
2023/04/10 06:42:36;;;;;;;10.93;8.50;;;10.50;99.90;;;;;;5024538;28;20041;-74
2023/04/10 06:45:10;;;;;;;11.15;8.18;;;10.80;99.90;;;;;;5023217;28;20476;-75
2023/04/10 06:47:36;;;;;;;9.55;7.70;;;11.50;99.90;;;;;;5028569;28;20034;-75
2023/04/10 06:50:03;;;;;;;10.50;7.97;;;12.00;99.90;;;;;;5029659;28;20025;-75
2023/04/10 06:52:29;;;;;;;9.40;7.78;;;11.50;99.90;;;;;;5030040;28;20021;-73
2023/04/10 06:54:56;;;;;;;11.45;8.05;;;11.20;99.90;;;;;;5026759;28;20089;-83
2023/04/10 06:57:22;;;;;;;10.43;8.15;;;11.60;99.90;;;;;;5022680;28;20057;-81
2023/04/10 06:59:48;;;;;;;11.20;8.05;;;11.10;99.90;;;;;;5033378;28;20389;-75
2023/04/10 07:02:14;;;;;;;10.10;7.53;;;11.60;99.90;;;;;;5023674;28;20045;-75
2023/04/10 07:04:41;;;;;;;10.95;8.65;;;11.80;99.90;;;;;;5023971;28;20026;-75
2023/04/10 07:07:08;;;;;;;11.10;9.80;;;11.80;99.90;;;;;;5032372;28;20485;-86
2023/04/10 07:09:35;;;;;;;10.13;8.02;;;11.70;99.90;;;;;;5033271;28;20471;-75
2023/04/10 07:12:01;;;;;;;9.60;7.88;;;11.80;99.90;;;;;;5030487;28;20463;-75
2023/04/10 07:14:27;;;;;;;9.52;7.35;;;11.80;99.90;;;;;;5030897;28;20029;-75
2023/04/10 07:16:53;;;;;;;10.05;7.65;;;11.90;99.90;;;;;;5032345;28;20037;-75
2023/04/10 07:19:19;;;;;;;9.05;7.82;;;12.30;97.90;;;;;;5030377;28;20366;-75
2023/04/10 07:21:49;;;;;;;10.20;7.45;;;13.40;99.90;;;;;;5031238;28;20390;-76
2023/04/10 07:24:16;;;;;;;9.43;7.45;;;13.60;83.40;;;;;;5024931;28;20029;-75
2023/04/10 07:26:43;;;;;;;9.55;7.93;;;13.30;79.50;;;;;;5033434;28;20034;-75
2023/04/10 07:29:09;;;;;;;10.18;8.27;;;13.80;76.50;;;;;;5027107;28;20045;-77
2023/04/10 07:31:36;;;;;;;7.50;6.32;;;13.60;68.20;;;;;;5024329;28;20029;-76
2023/04/10 07:34:02;;;;;;;7.78;6.97;;;13.20;65.00;;;;;;5031885;28;20040;-76
2023/04/10 07:36:28;;;;;;;9.98;7.78;;;12.60;74.50;;;;;;5029775;28;20045;-75
2023/04/10 07:38:55;;;;;;;8.60;7.18;;;13.30;73.40;;;;;;5021373;28;20045;-75
2023/04/10 07:41:22;;;;;;;9.50;7.05;;;14.50;55.50;;;;;;5019949;28;20096;-76
2023/04/10 07:43:49;;;;;;;8.00;6.43;;;15.20;42.80;;;;;;5026779;28;20044;-76
2023/04/10 07:46:16;;;;;;;7.78;5.93;;;15.60;36.40;;;;;;5017070;28;20037;-76
2023/04/10 07:48:43;;;;;;;8.13;5.80;;;15.70;36.30;;;;;;5022995;28;20037;-73
2023/04/10 07:51:09;;;;;;;7.72;6.45;;;15.80;32.00;;;;;;5029447;28;20406;-75
2023/04/10 07:53:36;;;;;;;8.15;5.88;;;16.30;29.90;;;;;;5028356;28;20037;-73
2023/04/10 07:56:02;;;;;;;8.40;5.88;;;16.40;25.20;;;;;;5031579;28;20359;-73
2023/04/10 07:58:28;;;;;;;8.13;6.55;;;16.50;24.60;;;;;;5029822;28;20041;-74
2023/04/10 08:00:54;;;;;;;7.18;5.10;;;16.20;23.70;;;;;;5032404;28;20056;-75
2023/04/10 08:03:21;;;;;;;7.95;5.70;;;16.10;24.90;;;;;;5029650;28;20038;-75
2023/04/10 08:05:47;;;;;;;8.05;6.22;;;16.10;24.90;;;;;;5021680;28;20363;-75
2023/04/10 08:08:14;;;;;;;10.32;5.90;;;16.30;25.40;;;;;;5027569;28;20056;-75
2023/04/10 08:10:41;;;;;;;7.97;5.47;;;16.50;23.90;;;;;;5031995;28;20036;-76
2023/04/10 08:13:07;;;;;;;6.95;5.68;;;15.70;24.60;;;;;;5028534;28;20032;-73
2023/04/10 08:15:34;;;;;;;6.03;5.25;;;15.50;24.60;;;;;;5019646;28;20052;-74
2023/04/10 08:18:00;;;;;;;6.03;4.80;;;15.50;24.00;;;;;;5022610;28;20033;-75
2023/04/10 08:20:27;;;;;;;6.90;5.45;;;15.60;23.80;;;;;;5029934;28;20025;-75
2023/04/10 08:22:53;;;;;;;7.38;4.80;;;15.70;27.50;;;;;;5027252;28;20033;-75
2023/04/10 08:25:19;;;;;;;6.10;4.60;;;16.00;24.70;;;;;;5030967;28;20037;-76
2023/04/10 08:27:45;;;;;;;4.43;3.78;;;16.40;25.40;;;;;;5027028;28;20432;-75
2023/04/10 08:30:12;;;;;;;4.55;3.35;;;16.10;19.80;;;;;;5028473;28;20044;-76
2023/04/10 08:32:38;;;;;;;4.43;3.47;;;16.50;19.40;;;;;;5031755;28;20030;-76
2023/04/10 08:35:05;;;;;;;4.35;3.40;;;16.30;18.50;;;;;;5015771;28;20148;-75
2023/04/10 08:37:31;;;;;;;6.35;3.22;;;16.70;16.70;;;;;;5023571;28;20044;-76
2023/04/10 08:39:57;;;;;;;4.45;3.50;;;17.00;17.00;;;;;;5023760;28;20152;-75
2023/04/10 08:42:24;;;;;;;4.10;2.90;;;16.60;15.20;;;;;;5027021;28;20041;-75
2023/04/10 08:44:51;;;;;;;4.53;3.10;;;16.60;13.90;;;;;;5030266;28;20037;-75
2023/04/10 08:47:20;;;;;;;4.20;3.50;;;16.70;12.50;;;;;;5030361;28;20481;-75
2023/04/10 08:49:57;;;;;;;4.20;3.13;;;17.00;13.00;;;;;;5031737;28;20375;-75
2023/04/10 08:52:30;;;;;;;8.43;4.15;;;17.10;12.90;;;;;;5029636;28;20378;-75
2023/04/10 08:54:58;;;;;;;4.30;3.40;;;17.20;11.90;;;;;;5030349;28;20050;-75
2023/04/10 08:57:26;;;;;;;5.10;3.63;;;17.30;12.00;;;;;;5027628;28;20053;-76
2023/04/10 08:59:52;;;;;;;5.05;3.75;;;16.70;13.00;;;;;;5031522;28;20501;-76
2023/04/10 09:02:19;;;;;;;7.05;3.88;;;16.90;12.70;;;;;;5024031;28;20033;-75
2023/04/10 09:04:50;;;;;;;5.35;3.83;;;16.70;12.40;;;;;;5030043;28;20352;-76
2023/04/10 09:07:17;;;;;;;5.22;3.75;;;16.70;13.80;;;;;;5030054;28;20037;-76
2023/04/10 09:09:43;;;;;;;5.30;3.70;;;16.80;12.10;;;;;;5031211;28;20360;-76
2023/04/10 09:12:12;;;;;;;5.95;3.60;;;16.80;12.10;;;;;;5025327;28;20045;-75
2023/04/10 09:14:39;;;;;;;6.15;3.05;;;16.90;11.60;;;;;;5030712;28;20037;-76
2023/04/10 09:17:21;;;;;;;4.47;3.70;;;16.90;11.60;;;;;;5030868;28;20497;-76
2023/04/10 09:19:51;;;;;;;6.45;3.42;;;17.10;11.20;;;;;;5018185;28;20041;-75
2023/04/10 09:22:24;;;;;;;5.10;3.13;;;16.50;12.70;;;;;;5029830;28;20055;-76
2023/04/10 09:24:51;;;;;;;4.55;3.35;;;16.90;11.30;;;;;;5030195;28;20042;-75
2023/04/10 09:27:32;;;;;;;5.22;3.63;;;17.00;10.30;;;;;;5030386;28;20463;-74
2023/04/10 09:29:58;;;;;;;4.78;3.38;;;16.70;11.30;;;;;;5026924;28;20162;-75
2023/04/10 09:32:37;;;;;;;4.40;3.45;;;16.80;11.30;;;;;;5025112;28;20386;-75
2023/04/10 09:35:04;;;;;;;4.63;3.47;;;16.90;10.10;;;;;;5028225;28;20030;-75
2023/04/10 09:37:37;;;;;;;4.82;3.58;;;16.70;9.90;;;;;;5018812;28;20053;-74
2023/04/10 09:40:04;;;;;;;10.02;5.32;;;16.70;9.60;;;;;;5028869;28;20046;-75
2023/04/10 09:42:37;;;;;;;7.00;4.60;;;17.20;11.20;;;;;;5023373;28;20053;-75
2023/04/10 09:45:04;;;;;;;6.82;3.92;;;17.60;9.30;;;;;;5023254;28;20037;-76
2023/04/10 09:47:31;;;;;;;9.00;4.30;;;17.40;8.30;;;;;;5029635;28;20037;-75
2023/04/10 09:49:59;;;;;;;5.20;4.30;;;17.60;8.30;;;;;;5025884;28;20135;-75
2023/04/10 09:52:37;;;;;;;7.00;4.28;;;17.40;8.80;;;;;;5025396;28;20056;-76
2023/04/10 09:55:05;;;;;;;35.33;21.38;;;17.10;8.70;;;;;;5031158;28;20390;-75
2023/04/10 09:57:33;;;;;;;13.02;7.28;;;16.90;9.60;;;;;;5029525;28;20037;-76
2023/04/10 10:00:04;;;;;;;10.23;8.73;;;16.70;9.30;;;;;;5024802;28;20172;-76
2023/04/10 10:02:35;;;;;;;5.50;3.67;;;16.60;10.10;;;;;;5041287;28;20439;-78
2023/04/10 10:05:04;;;;;;;7.87;6.07;;;16.70;9.50;;;;;;5034207;28;20037;-75
2023/04/10 10:07:30;;;;;;;5.55;4.35;;;16.90;9.30;;;;;;5027031;28;20475;-77
2023/04/10 10:09:57;;;;;;;5.68;3.30;;;16.80;8.90;;;;;;5033667;28;20471;-73
2023/04/10 10:12:44;;;;;;;4.10;2.97;;;16.40;9.20;;;;;;5029497;28;20049;-78
2023/04/10 10:15:18;;;;;;;12.82;7.88;;;16.40;10.00;;;;;;5030036;28;20485;-75
2023/04/10 10:18:02;;;;;;;6.22;3.65;;;16.30;9.90;;;;;;5033500;28;20033;-75
2023/04/10 10:20:31;;;;;;;6.63;5.30;;;16.50;10.30;;;;;;5014108;28;20050;-75
2023/04/10 10:22:58;;;;;;;5.72;3.90;;;16.60;9.60;;;;;;5033092;28;20022;-75
2023/04/10 10:25:25;;;;;;;51.63;38.20;;;16.40;8.10;;;;;;5026757;28;20029;-75
2023/04/10 10:27:54;;;;;;;17.38;13.88;;;16.70;9.90;;;;;;5032901;28;20068;-77
2023/04/10 10:30:21;;;;;;;5.28;3.95;;;16.90;10.00;;;;;;5034022;28;20040;-77
2023/04/10 10:32:48;;;;;;;9.13;8.20;;;17.10;9.00;;;;;;5027150;28;20451;-75
2023/04/10 10:35:15;;;;;;;16.92;14.32;;;17.00;8.70;;;;;;5028100;28;20383;-76
2023/04/10 10:37:44;;;;;;;7.20;5.50;;;17.10;9.30;;;;;;5026700;28;20379;-75
2023/04/10 10:40:28;;;;;;;9.27;6.10;;;16.80;7.70;;;;;;5040146;28;20045;-76
2023/04/10 10:43:18;;;;;;;10.68;7.55;;;16.70;7.00;;;;;;5027729;28;20053;-75
2023/04/10 10:45:50;;;;;;;25.10;21.50;;;17.10;8.90;;;;;;5029219;28;20038;-75
2023/04/10 10:48:17;;;;;;;6.50;4.68;;;17.10;7.90;;;;;;5020358;28;20422;-76
2023/04/10 10:50:49;;;;;;;4.38;2.90;;;17.30;8.60;;;;;;5033337;28;20477;-75
2023/04/10 10:53:45;;;;;;;5.63;3.42;;;17.50;6.10;;;;;;5029867;28;20034;-75
2023/04/10 10:56:17;;;;;;;6.70;6.00;;;17.10;8.60;;;;;;5017353;28;20052;-76
2023/04/10 10:58:47;;;;;;;3.75;2.58;;;16.80;7.80;;;;;;5026152;28;20071;-81
2023/04/10 11:01:13;;;;;;;4.40;3.40;;;17.20;8.80;;;;;;5020207;28;20478;-76
2023/04/10 11:03:40;;;;;;;4.53;2.60;;;17.20;6.80;;;;;;5020415;28;20029;-75
2023/04/10 11:06:07;;;;;;;7.03;4.18;;;17.10;6.40;;;;;;5027316;28;20391;-75
2023/04/10 11:08:51;;;;;;;3.65;2.80;;;16.90;6.30;;;;;;5027201;28;20044;-76
2023/04/10 11:11:22;;;;;;;4.65;3.35;;;17.30;7.40;;;;;;5029420;28;20050;-75
2023/04/10 11:13:57;;;;;;;11.38;8.35;;;17.40;7.40;;;;;;5019199;28;20375;-75
2023/04/10 11:16:42;;;;;;;4.85;4.13;;;17.50;6.60;;;;;;5042498;28;20045;-75
2023/04/10 11:19:12;;;;;;;8.65;3.90;;;17.40;6.00;;;;;;5021094;28;20033;-75
2023/04/10 11:22:00;;;;;;;7.35;5.30;;;17.70;7.40;;;;;;5025264;28;20040;-75
2023/04/10 11:24:27;;;;;;;4.80;3.70;;;17.90;6.00;;;;;;5032492;28;20033;-75
2023/04/10 11:26:55;;;;;;;7.72;5.45;;;17.70;5.80;;;;;;5022512;28;20042;-75
2023/04/10 11:29:26;;;;;;;4.78;3.47;;;17.50;5.20;;;;;;5029390;28;20382;-76
2023/04/10 11:31:57;;;;;;;5.25;3.35;;;17.80;5.30;;;;;;5030569;28;20033;-75
2023/04/10 11:34:26;;;;;;;24.55;18.88;;;18.10;4.60;;;;;;5025475;28;20065;-76
2023/04/10 11:36:53;;;;;;;14.25;12.35;;;18.30;5.40;;;;;;5032636;28;20488;-76
2023/04/10 11:39:20;;;;;;;38.30;29.10;;;18.40;5.10;;;;;;5030775;28;20037;-82
2023/04/10 11:41:47;;;;;;;6.95;5.15;;;18.70;3.50;;;;;;5031932;28;20038;-75
2023/04/10 11:44:16;;;;;;;4.82;2.92;;;17.90;2.00;;;;;;5032314;28;20040;-76
2023/04/10 11:46:46;;;;;;;4.20;3.10;;;18.10;3.40;;;;;;5025160;28;20033;-76
2023/04/10 11:49:35;;;;;;;6.93;5.03;;;17.60;3.40;;;;;;5029629;28;20375;-75
2023/04/10 11:52:02;;;;;;;6.70;5.38;;;17.80;5.10;;;;;;5002143;28;20044;-79
2023/04/10 11:54:28;;;;;;;13.27;10.27;;;18.10;3.40;;;;;;5026907;28;20038;-76
2023/04/10 11:57:06;;;;;;;4.82;2.78;;;18.40;2.70;;;;;;5016815;28;20044;-75
2023/04/10 11:59:33;;;;;;;2.80;2.15;;;18.30;1.00;;;;;;5031840;28;20045;-75
2023/04/10 12:02:06;;;;;;;4.40;3.28;;;18.30;1.00;;;;;;5025052;28;20046;-75
2023/04/10 12:04:32;;;;;;;3.42;2.65;;;18.50;1.00;;;;;;5028054;28;20064;-75
2023/04/10 12:06:59;;;;;;;10.75;7.55;;;18.50;1.00;;;;;;5031288;28;20033;-76
2023/04/10 12:09:26;;;;;;;2.90;1.90;;;18.40;1.00;;;;;;5025719;28;20045;-76
2023/04/10 12:11:58;;;;;;;5.78;4.13;;;18.60;1.00;;;;;;5030650;28;20717;-75
2023/04/10 12:14:37;;;;;;;14.00;11.85;;;18.70;1.00;;;;;;5026553;28;20029;-75
2023/04/10 12:17:05;;;;;;;6.20;5.25;;;18.90;1.00;;;;;;5022635;28;20053;-75
2023/04/10 12:19:32;;;;;;;8.85;7.22;;;19.20;1.00;;;;;;5021273;28;20045;-75
2023/04/10 12:22:03;;;;;;;4.63;3.50;;;19.30;1.00;;;;;;5022682;28;20037;-75
2023/04/10 12:24:47;;;;;;;4.65;3.33;;;19.40;1.00;;;;;;5028430;28;20505;-75
2023/04/10 12:27:25;;;;;;;4.70;3.45;;;18.80;1.00;;;;;;5031157;28;20041;-74
2023/04/10 12:29:53;;;;;;;3.83;2.20;;;18.70;1.00;;;;;;5028501;28;20038;-77
2023/04/10 12:32:21;;;;;;;5.75;3.97;;;18.70;1.00;;;;;;5023050;28;20061;-75
2023/04/10 12:34:57;;;;;;;7.63;5.00;;;18.80;1.00;;;;;;5030417;28;20048;-75
2023/04/10 12:37:25;;;;;;;19.83;12.02;;;19.20;1.00;;;;;;5021813;28;20034;-75
2023/04/10 12:39:51;;;;;;;92.95;63.42;;;19.70;1.00;;;;;;5019358;28;20048;-75
2023/04/10 12:42:22;;;;;;;6.65;4.72;;;19.70;1.00;;;;;;5024336;28;20050;-75
2023/04/10 12:44:55;;;;;;;3.10;2.17;;;19.80;1.00;;;;;;5025749;28;20030;-74
2023/04/10 12:47:26;;;;;;;3.50;2.17;;;19.80;1.00;;;;;;5028419;28;20500;-88
2023/04/10 12:50:09;;;;;;;3.50;2.78;;;19.70;1.00;;;;;;5021518;28;20068;-76
2023/04/10 12:52:37;;;;;;;7.10;5.13;;;19.90;1.00;;;;;;5024883;28;20056;-76
2023/04/10 12:55:18;;;;;;;7.05;5.53;;;19.80;1.00;;;;;;5020649;28;20030;-77
2023/04/10 12:57:46;;;;;;;12.07;9.48;;;19.90;1.00;;;;;;5027252;28;20056;-77
2023/04/10 13:00:17;;;;;;;5.35;3.63;;;19.80;1.00;;;;;;5030693;28;20070;-76
2023/04/10 13:02:45;;;;;;;4.75;3.28;;;19.90;1.00;;;;;;5022424;28;20471;-75
2023/04/10 13:05:11;;;;;;;4.95;3.47;;;20.00;1.00;;;;;;5023274;28;20026;-77
2023/04/10 13:07:38;;;;;;;8.90;5.80;;;19.60;1.00;;;;;;5030418;28;20038;-76
2023/04/10 13:10:06;;;;;;;9.02;5.78;;;19.10;1.00;;;;;;5030394;28;20048;-75
2023/04/10 13:12:33;;;;;;;51.70;30.15;;;18.90;1.00;;;;;;5028579;28;20044;-75
2023/04/10 13:15:00;;;;;;;20.80;12.82;;;19.10;1.00;;;;;;5014223;28;20033;-75